Burlington, Maine
Current Conditions -  °F | °C
As of 12:53 PM on Friday 31 Oct 2014 (Local Time) from KMLT Reporting Station
Overcast Overcast  
Wind Chill:   Ceiling: 4900
Heat Index:   Visibility: 10mi
Dew Point:   Wind: 5mph
Humidity: 63%   Direction: 340°NNW
Pressure: 30.04"   Gusts: NA
Location:  45.21°N, 68.43°W
Report Text: KMLT 311653Z AUTO 34004KT 10SM SCT026 OVC049 08/01 A3004 RMK AO2 SLP179 T00780011
Loading
Personal Weather Stations






























Interactive Weather Map
Tropical Storm Tracking
New forecast layout! Learn more

10-Day Weather Forecast

Advertisements
Track Severe Weather on mobile